Time,TemperatureF,DewpointF,PressureIn,WindDirection,WindDirectionDegrees,WindSpeedMPH,WindSpeedGustMPH,Humidity,HourlyPrecipIn,Conditions,Clouds,dailyrainin,SoftwareType,DateUTC
2013-05-30 00:02:00,67.8,61.4,29.58,South,175,6.0,6.0,80,0.00,,,0.00,Wunderground v.1.15,2013-05-30 05:02:00,
2013-05-30 00:08:00,67.4,61.7,29.59,WNW,288,1.0,4.0,82,0.00,,,0.00,Wunderground v.1.15,2013-05-30 05:08:00,
2013-05-30 00:14:00,67.0,61.7,29.60,SSE,148,5.0,6.0,83,0.00,,,0.00,Wunderground v.1.15,2013-05-30 05:14:00,
2013-05-30 00:20:00,66.6,61.3,29.60,SSE,153,6.0,6.0,83,0.00,,,0.00,Wunderground v.1.15,2013-05-30 05:20:00,
2013-05-30 00:26:00,66.3,61.0,29.61,South,176,3.0,6.0,83,0.00,,,0.00,Wunderground v.1.15,2013-05-30 05:26:00,
2013-05-30 00:32:00,66.2,61.2,29.61,NNE,26,2.0,4.0,84,0.00,,,0.00,Wunderground v.1.15,2013-05-30 05:32:00,
2013-05-30 00:37:00,66.0,61.0,29.62,SSE,153,3.0,4.0,84,0.00,,,0.00,Wunderground v.1.15,2013-05-30 05:37:00,
2013-05-30 00:43:00,65.9,60.9,29.63,SE,137,7.0,7.0,84,0.00,,,0.00,Wunderground v.1.15,2013-05-30 05:43:00,
2013-05-30 00:49:00,65.8,60.8,29.64,West,259,0.0,3.0,84,0.00,,,0.00,Wunderground v.1.15,2013-05-30 05:49:00,
2013-05-30 00:55:00,65.7,60.7,29.65,South,172,2.0,3.0,84,0.00,,,0.00,Wunderground v.1.15,2013-05-30 05:55:00,
2013-05-30 01:00:00,65.6,61.0,29.65,SSW,209,1.0,3.0,85,0.00,,,0.00,Wunderground v.1.15,2013-05-30 06:00:00,
2013-05-30 01:06:00,65.3,61.0,29.66,West,267,4.0,4.0,86,0.00,,,0.01,Wunderground v.1.15,2013-05-30 06:06:00,
2013-05-30 01:12:00,64.9,60.9,29.65,ENE,65,1.0,3.0,87,0.15,,,0.02,Wunderground v.1.15,2013-05-30 06:12:00,
2013-05-30 01:18:00,64.4,61.1,29.65,SE,134,1.0,2.0,89,0.06,,,0.02,Wunderground v.1.15,2013-05-30 06:18:00,
2013-05-30 01:24:00,64.1,61.1,29.63,SW,214,0.0,2.0,90,0.04,,,0.02,Wunderground v.1.15,2013-05-30 06:24:00,
2013-05-30 01:30:00,63.9,61.2,29.63,SE,131,3.0,3.0,91,0.00,,,0.02,Wunderground v.1.15,2013-05-30 06:30:00,
2013-05-30 01:36:00,63.7,61.0,29.62,SSE,159,2.0,3.0,91,0.00,,,0.02,Wunderground v.1.15,2013-05-30 06:36:00,
2013-05-30 01:41:00,63.6,60.9,29.61,SE,124,2.0,2.0,91,0.00,,,0.02,Wunderground v.1.15,2013-05-30 06:41:00,
2013-05-30 01:47:00,63.4,61.0,29.60,South,178,1.0,2.0,92,0.00,,,0.02,Wunderground v.1.15,2013-05-30 06:47:00,
2013-05-30 01:53:00,63.4,61.0,29.59,SE,132,2.0,3.0,92,0.00,,,0.02,Wunderground v.1.15,2013-05-30 06:53:00,
2013-05-30 01:58:00,63.2,60.8,29.59,SE,128,3.0,3.0,92,0.00,,,0.02,Wunderground v.1.15,2013-05-30 06:58:00,
2013-05-30 02:03:00,63.2,60.8,29.59,ESE,120,2.0,3.0,92,0.00,,,0.02,Wunderground v.1.15,2013-05-30 07:03:00,
2013-05-30 02:08:00,63.1,61.0,29.58,SSE,161,1.0,2.0,93,0.00,,,0.02,Wunderground v.1.15,2013-05-30 07:08:00,
2013-05-30 02:13:00,63.1,61.0,29.58,East,87,2.0,3.0,93,0.00,,,0.02,Wunderground v.1.15,2013-05-30 07:13:00,
2013-05-30 02:18:00,63.0,60.9,29.58,ENE,78,1.0,1.0,93,0.00,,,0.02,Wunderground v.1.15,2013-05-30 07:18:00,
2013-05-30 02:23:00,63.0,60.9,29.58,ENE,78,0.0,1.0,93,0.00,,,0.02,Wunderground v.1.15,2013-05-30 07:23:00,
2013-05-30 02:28:00,62.9,60.8,29.60,SW,217,0.0,0.0,93,0.00,,,0.02,Wunderground v.1.15,2013-05-30 07:28:00,
2013-05-30 02:33:00,62.9,60.8,29.60,SW,217,0.0,1.0,93,0.00,,,0.02,Wunderground v.1.15,2013-05-30 07:33:00,
2013-05-30 02:38:00,62.8,61.0,29.61,SSE,154,1.0,1.0,94,0.00,,,0.02,Wunderground v.1.15,2013-05-30 07:38:00,
2013-05-30 02:43:00,62.9,61.1,29.61,South,173,1.0,3.0,94,0.00,,,0.02,Wunderground v.1.15,2013-05-30 07:43:00,
2013-05-30 02:48:00,62.9,61.1,29.60,SSE,168,1.0,1.0,94,0.00,,,0.02,Wunderground v.1.15,2013-05-30 07:48:00,
2013-05-30 02:53:00,62.9,61.1,29.60,ENE,78,1.0,1.0,94,0.00,,,0.02,Wunderground v.1.15,2013-05-30 07:53:00,
2013-05-30 02:58:00,62.8,60.7,29.59,SE,126,1.0,1.0,93,0.00,,,0.02,Wunderground v.1.15,2013-05-30 07:58:00,
2013-05-30 03:03:00,62.7,60.6,29.59,ENE,69,1.0,4.0,93,0.00,,,0.02,Wunderground v.1.15,2013-05-30 08:03:00,
2013-05-30 03:08:00,62.7,60.6,29.58,ENE,65,1.0,2.0,93,0.00,,,0.02,Wunderground v.1.15,2013-05-30 08:08:00,
2013-05-30 03:13:00,62.5,60.4,29.58,SE,143,1.0,3.0,93,0.00,,,0.02,Wunderground v.1.15,2013-05-30 08:13:00,
2013-05-30 03:18:00,62.5,60.4,29.58,SW,216,0.0,1.0,93,0.00,,,0.02,Wunderground v.1.15,2013-05-30 08:18:00,
2013-05-30 03:23:00,62.4,60.3,29.58,South,170,2.0,2.0,93,0.00,,,0.02,Wunderground v.1.15,2013-05-30 08:23:00,
2013-05-30 03:28:00,62.4,60.3,29.58,South,169,1.0,2.0,93,0.00,,,0.02,Wunderground v.1.15,2013-05-30 08:28:00,
2013-05-30 03:33:00,62.3,60.2,29.58,SSE,156,2.0,2.0,93,0.00,,,0.02,Wunderground v.1.15,2013-05-30 08:33:00,
2013-05-30 03:38:00,62.3,60.2,29.56,East,81,1.0,3.0,93,0.00,,,0.02,Wunderground v.1.15,2013-05-30 08:38:00,
2013-05-30 03:43:00,62.3,60.2,29.56,South,180,1.0,5.0,93,0.00,,,0.02,Wunderground v.1.15,2013-05-30 08:43:00,
2013-05-30 03:48:00,62.2,60.2,29.56,East,85,0.0,2.0,93,0.00,,,0.02,Wunderground v.1.15,2013-05-30 08:48:00,
2013-05-30 03:53:00,62.2,60.2,29.56,SSE,149,3.0,5.0,93,0.00,,,0.02,Wunderground v.1.15,2013-05-30 08:53:00,
2013-05-30 03:58:00,62.2,60.2,29.55,ENE,78,0.0,2.0,93,0.00,,,0.02,Wunderground v.1.15,2013-05-30 08:58:00,
2013-05-30 04:03:00,62.2,60.2,29.55,ESE,121,1.0,5.0,93,0.00,,,0.02,Wunderground v.1.15,2013-05-30 09:03:00,
2013-05-30 04:08:00,62.2,60.2,29.56,ESE,110,1.0,1.0,93,0.00,,,0.02,Wunderground v.1.15,2013-05-30 09:08:00,
2013-05-30 04:13:00,62.2,60.2,29.56,SSE,156,1.0,3.0,93,0.00,,,0.02,Wunderground v.1.15,2013-05-30 09:13:00,
2013-05-30 04:18:00,62.2,60.2,29.57,SSE,159,1.0,2.0,93,0.00,,,0.02,Wunderground v.1.15,2013-05-30 09:18:00,
2013-05-30 04:23:00,62.2,60.2,29.57,SSE,150,0.0,2.0,93,0.00,,,0.02,Wunderground v.1.15,2013-05-30 09:23:00,
2013-05-30 04:28:00,62.2,60.2,29.56,SE,137,1.0,1.0,93,0.00,,,0.02,Wunderground v.1.15,2013-05-30 09:28:00,
2013-05-30 04:33:00,62.2,60.2,29.56,East,81,1.0,3.0,93,0.00,,,0.02,Wunderground v.1.15,2013-05-30 09:33:00,
2013-05-30 04:38:00,62.2,60.2,29.56,East,97,1.0,2.0,93,0.00,,,0.02,Wunderground v.1.15,2013-05-30 09:38:00,
2013-05-30 04:43:00,62.2,60.2,29.56,ENE,71,2.0,4.0,93,0.00,,,0.02,Wunderground v.1.15,2013-05-30 09:43:00,
2013-05-30 04:48:00,62.2,60.2,29.55,East,90,5.0,6.0,93,0.00,,,0.02,Wunderground v.1.15,2013-05-30 09:48:00,
2013-05-30 04:53:00,62.2,60.2,29.55,NE,43,1.0,6.0,93,0.00,,,0.03,Wunderground v.1.15,2013-05-30 09:53:00,
2013-05-30 04:58:00,62.3,60.2,29.57,SW,219,0.0,2.0,93,0.00,,,0.03,Wunderground v.1.15,2013-05-30 09:58:00,
2013-05-30 05:03:00,62.3,60.2,29.57,East,85,1.0,2.0,93,0.00,,,0.03,Wunderground v.1.15,2013-05-30 10:03:00,
2013-05-30 05:08:00,62.4,60.3,29.56,WSW,252,2.0,2.0,93,0.00,,,0.03,Wunderground v.1.15,2013-05-30 10:08:00,
2013-05-30 05:13:00,62.5,60.1,29.57,SW,222,2.0,5.0,92,0.00,,,0.03,Wunderground v.1.15,2013-05-30 10:13:00,
2013-05-30 05:18:00,62.5,60.4,29.61,WSW,240,2.0,3.0,93,0.00,,,0.03,Wunderground v.1.15,2013-05-30 10:18:00,
2013-05-30 05:23:00,62.5,60.4,29.60,NNW,333,0.0,3.0,93,0.00,,,0.03,Wunderground v.1.15,2013-05-30 10:23:00,
2013-05-30 05:28:00,62.6,60.5,29.60,NNW,333,0.0,1.0,93,0.00,,,0.03,Wunderground v.1.15,2013-05-30 10:28:00,
2013-05-30 05:33:00,62.5,60.4,29.59,NNW,333,0.0,1.0,93,0.00,,,0.03,Wunderground v.1.15,2013-05-30 10:33:00,
2013-05-30 05:38:00,62.5,60.4,29.59,NNW,333,2.0,2.0,93,0.00,,,0.03,Wunderground v.1.15,2013-05-30 10:38:00,
2013-05-30 05:43:00,62.5,60.7,29.58,NNW,333,0.0,2.0,94,0.00,,,0.03,Wunderground v.1.15,2013-05-30 10:43:00,
2013-05-30 05:48:00,62.5,60.7,29.56,NNW,333,1.0,1.0,94,0.00,,,0.03,Wunderground v.1.15,2013-05-30 10:48:00,
2013-05-30 05:53:00,62.5,60.7,29.58,NNW,333,1.0,2.0,94,0.00,,,0.03,Wunderground v.1.15,2013-05-30 10:53:00,
2013-05-30 05:58:00,62.6,60.8,29.59,NNW,333,1.0,1.0,94,0.00,,,0.03,Wunderground v.1.15,2013-05-30 10:58:00,
2013-05-30 06:03:00,62.5,60.7,29.60,NNW,333,0.0,2.0,94,0.00,,,0.03,Wunderground v.1.15,2013-05-30 11:03:00,
2013-05-30 06:08:00,62.5,60.7,29.60,NNW,333,0.0,1.0,94,0.00,,,0.03,Wunderground v.1.15,2013-05-30 11:08:00,
2013-05-30 06:13:00,62.5,60.7,29.60,NNW,333,0.0,1.0,94,0.00,,,0.03,Wunderground v.1.15,2013-05-30 11:13:00,
2013-05-30 06:18:00,62.5,60.7,29.60,NNW,333,0.0,0.0,94,0.00,,,0.03,Wunderground v.1.15,2013-05-30 11:18:00,
2013-05-30 06:23:00,62.5,60.7,29.60,NNW,333,1.0,2.0,94,0.00,,,0.03,Wunderground v.1.15,2013-05-30 11:23:00,
2013-05-30 06:28:00,62.6,60.8,29.60,NNW,333,0.0,0.0,94,0.00,,,0.03,Wunderground v.1.15,2013-05-30 11:28:00,
2013-05-30 06:33:00,62.6,60.8,29.60,NNW,333,1.0,2.0,94,0.00,,,0.03,Wunderground v.1.15,2013-05-30 11:33:00,
2013-05-30 06:38:00,62.7,60.9,29.59,NNW,333,1.0,1.0,94,0.00,,,0.03,Wunderground v.1.15,2013-05-30 11:38:00,
2013-05-30 06:43:00,62.7,60.9,29.58,NNW,333,0.0,2.0,94,0.00,,,0.03,Wunderground v.1.15,2013-05-30 11:43:00,
2013-05-30 06:48:00,62.7,60.9,29.58,NNW,333,0.0,1.0,94,0.00,,,0.03,Wunderground v.1.15,2013-05-30 11:48:00,
2013-05-30 06:53:00,62.8,61.0,29.59,NNW,333,2.0,2.0,94,0.00,,,0.03,Wunderground v.1.15,2013-05-30 11:53:00,
2013-05-30 06:58:00,62.9,61.1,29.60,NNW,333,0.0,1.0,94,0.00,,,0.03,Wunderground v.1.15,2013-05-30 11:58:00,
2013-05-30 07:03:00,62.9,61.1,29.59,NNW,333,0.0,2.0,94,0.00,,,0.03,Wunderground v.1.15,2013-05-30 12:03:00,
2013-05-30 07:08:00,62.9,61.1,29.59,NNW,333,1.0,2.0,94,0.00,,,0.03,Wunderground v.1.15,2013-05-30 12:08:00,
2013-05-30 07:13:00,63.0,61.2,29.60,NNW,333,1.0,3.0,94,0.00,,,0.03,Wunderground v.1.15,2013-05-30 12:13:00,
2013-05-30 07:18:00,63.0,61.2,29.59,NNW,333,1.0,2.0,94,0.00,,,0.04,Wunderground v.1.15,2013-05-30 12:18:00,
2013-05-30 07:23:00,63.0,61.2,29.59,NNW,333,1.0,2.0,94,0.00,,,0.04,Wunderground v.1.15,2013-05-30 12:23:00,
2013-05-30 07:28:00,63.0,61.2,29.60,NNW,333,1.0,3.0,94,0.00,,,0.04,Wunderground v.1.15,2013-05-30 12:28:00,
2013-05-30 07:33:00,63.0,61.2,29.60,SSE,152,1.0,4.0,94,0.00,,,0.04,Wunderground v.1.15,2013-05-30 12:33:00,
2013-05-30 07:38:00,63.0,61.2,29.61,SW,231,1.0,2.0,94,0.00,,,0.05,Wunderground v.1.15,2013-05-30 12:38:00,
2013-05-30 07:43:00,63.0,61.2,29.61,South,183,0.0,3.0,94,0.18,,,0.06,Wunderground v.1.15,2013-05-30 12:43:00,
2013-05-30 07:48:00,63.0,61.2,29.60,South,180,1.0,2.0,94,0.34,,,0.08,Wunderground v.1.15,2013-05-30 12:48:00,
2013-05-30 07:53:00,62.9,61.1,29.61,SE,128,2.0,3.0,94,0.14,,,0.09,Wunderground v.1.15,2013-05-30 12:53:00,
2013-05-30 07:58:00,62.8,61.0,29.60,SSW,206,1.0,2.0,94,0.19,,,0.10,Wunderground v.1.15,2013-05-30 12:58:00,
2013-05-30 08:03:00,62.7,61.2,29.60,SW,231,1.0,4.0,95,0.12,,,0.11,Wunderground v.1.15,2013-05-30 13:03:00,
2013-05-30 08:08:00,62.7,61.2,29.60,SSE,160,1.0,2.0,95,0.13,,,0.12,Wunderground v.1.15,2013-05-30 13:08:00,
2013-05-30 08:13:00,62.6,61.1,29.61,SW,234,0.0,3.0,95,0.22,,,0.15,Wunderground v.1.15,2013-05-30 13:13:00,
2013-05-30 08:18:00,62.5,61.0,29.60,ESE,119,1.0,3.0,95,0.37,,,0.18,Wunderground v.1.15,2013-05-30 13:18:00,
2013-05-30 08:23:00,62.5,61.0,29.60,ENE,66,1.0,3.0,95,0.17,,,0.19,Wunderground v.1.15,2013-05-30 13:23:00,
2013-05-30 08:28:00,62.5,61.0,29.60,ENE,66,1.0,1.0,95,0.20,,,0.21,Wunderground v.1.15,2013-05-30 13:28:00,
2013-05-30 08:33:00,62.4,61.2,29.61,ENE,66,1.0,2.0,96,0.17,,,0.22,Wunderground v.1.15,2013-05-30 13:33:00,
2013-05-30 08:38:00,62.5,61.3,29.61,ENE,66,0.0,2.0,96,0.11,,,0.23,Wunderground v.1.15,2013-05-30 13:38:00,
2013-05-30 08:43:00,62.5,61.3,29.61,ENE,67,1.0,2.0,96,0.10,,,0.24,Wunderground v.1.15,2013-05-30 13:43:00,
2013-05-30 08:48:00,62.5,61.3,29.62,SW,231,1.0,1.0,96,0.09,,,0.24,Wunderground v.1.15,2013-05-30 13:48:00,
2013-05-30 08:53:00,62.5,61.3,29.63,SW,231,0.0,2.0,96,0.17,,,0.25,Wunderground v.1.15,2013-05-30 13:53:00,
2013-05-30 08:58:00,62.5,61.3,29.63,West,261,0.0,1.0,96,0.29,,,0.27,Wunderground v.1.15,2013-05-30 13:58:00,
2013-05-30 09:03:00,62.5,61.3,29.63,West,261,1.0,3.0,96,0.15,,,0.29,Wunderground v.1.15,2013-05-30 14:03:00,
2013-05-30 09:08:00,62.4,61.2,29.63,West,261,0.0,1.0,96,0.17,,,0.31,Wunderground v.1.15,2013-05-30 14:08:00,
2013-05-30 09:13:00,62.4,61.2,29.64,West,261,1.0,2.0,96,0.19,,,0.32,Wunderground v.1.15,2013-05-30 14:13:00,
2013-05-30 09:18:00,62.4,61.2,29.64,WSW,258,1.0,2.0,96,0.22,,,0.34,Wunderground v.1.15,2013-05-30 14:18:00,
2013-05-30 09:23:00,62.4,61.2,29.63,WSW,258,1.0,2.0,96,0.26,,,0.36,Wunderground v.1.15,2013-05-30 14:23:00,
2013-05-30 09:28:00,62.3,61.1,29.63,WSW,258,2.0,4.0,96,0.16,,,0.37,Wunderground v.1.15,2013-05-30 14:28:00,
2013-05-30 09:33:00,62.3,61.1,29.63,WSW,258,0.0,4.0,96,0.14,,,0.38,Wunderground v.1.15,2013-05-30 14:33:00,
2013-05-30 09:38:00,62.3,61.1,29.63,WSW,258,1.0,1.0,96,0.26,,,0.40,Wunderground v.1.15,2013-05-30 14:38:00,
2013-05-30 09:43:00,62.3,61.1,29.63,SSE,158,0.0,3.0,96,0.23,,,0.42,Wunderground v.1.15,2013-05-30 14:43:00,
2013-05-30 09:48:00,62.3,61.1,29.63,West,269,0.0,1.0,96,0.15,,,0.43,Wunderground v.1.15,2013-05-30 14:48:00,
2013-05-30 09:53:00,62.3,61.1,29.62,West,269,0.0,2.0,96,0.14,,,0.44,Wunderground v.1.15,2013-05-30 14:53:00,
2013-05-30 09:58:00,62.3,61.1,29.63,West,269,1.0,1.0,96,0.07,,,0.44,Wunderground v.1.15,2013-05-30 14:58:00,
2013-05-30 10:03:00,62.3,61.1,29.63,West,269,1.0,2.0,96,0.05,,,0.45,Wunderground v.1.15,2013-05-30 15:03:00,
2013-05-30 10:08:00,62.3,61.1,29.63,West,269,1.0,1.0,96,0.05,,,0.45,Wunderground v.1.15,2013-05-30 15:08:00,
2013-05-30 10:13:00,62.4,61.2,29.63,West,269,1.0,2.0,96,0.06,,,0.46,Wunderground v.1.15,2013-05-30 15:13:00,
2013-05-30 10:18:00,62.3,61.1,29.63,West,269,1.0,2.0,96,0.23,,,0.48,Wunderground v.1.15,2013-05-30 15:18:00,
2013-05-30 10:23:00,62.3,61.1,29.63,West,269,1.0,3.0,96,0.15,,,0.49,Wunderground v.1.15,2013-05-30 15:23:00,
2013-05-30 10:28:00,62.4,61.2,29.63,SE,129,1.0,4.0,96,0.14,,,0.50,Wunderground v.1.15,2013-05-30 15:28:00,
2013-05-30 10:33:00,62.4,61.2,29.63,South,185,1.0,4.0,96,0.07,,,0.51,Wunderground v.1.15,2013-05-30 15:33:00,
2013-05-30 10:39:00,62.4,61.2,29.62,ESE,104,2.0,2.0,96,0.12,,,0.52,Wunderground v.1.15,2013-05-30 15:39:00,
2013-05-30 10:44:00,62.3,61.1,29.62,ESE,104,0.0,2.0,96,0.10,,,0.52,Wunderground v.1.15,2013-05-30 15:44:00,
2013-05-30 10:49:00,62.4,61.2,29.62,SE,140,2.0,3.0,96,0.06,,,0.53,Wunderground v.1.15,2013-05-30 15:49:00,
2013-05-30 10:54:00,62.4,61.2,29.64,SE,140,1.0,4.0,96,0.06,,,0.53,Wunderground v.1.15,2013-05-30 15:54:00,
2013-05-30 10:59:00,62.5,61.3,29.66,East,97,3.0,5.0,96,0.08,,,0.54,Wunderground v.1.15,2013-05-30 15:59:00,
2013-05-30 11:04:00,62.4,61.2,29.65,ESE,105,3.0,6.0,96,0.20,,,0.56,Wunderground v.1.15,2013-05-30 16:04:00,
2013-05-30 11:09:00,62.1,60.7,29.65,ESE,123,4.0,4.0,95,0.11,,,0.56,Wunderground v.1.15,2013-05-30 16:09:00,
2013-05-30 11:14:00,61.9,60.2,29.63,SSW,213,1.0,8.0,94,0.09,,,0.57,Wunderground v.1.15,2013-05-30 16:14:00,
2013-05-30 11:19:00,61.8,60.4,29.60,SE,134,2.0,2.0,95,0.10,,,0.58,Wunderground v.1.15,2013-05-30 16:19:00,
2013-05-30 11:24:00,61.7,60.3,29.57,ESE,122,2.0,5.0,95,0.09,,,0.59,Wunderground v.1.15,2013-05-30 16:24:00,
2013-05-30 11:29:00,61.6,60.2,29.56,NE,41,3.0,5.0,95,0.09,,,0.59,Wunderground v.1.15,2013-05-30 16:29:00,
2013-05-30 11:34:00,61.5,60.1,29.52,NE,46,8.0,12.0,95,0.05,,,0.59,Wunderground v.1.15,2013-05-30 16:34:00,
2013-05-30 11:39:00,61.4,60.0,29.54,WSW,240,2.0,4.0,95,0.04,,,0.59,Wunderground v.1.15,2013-05-30 16:39:00,
2013-05-30 11:44:00,61.3,59.6,29.55,SSE,153,4.0,5.0,94,0.00,,,0.59,Wunderground v.1.15,2013-05-30 16:44:00,
2013-05-30 11:49:00,61.4,59.7,29.55,SE,143,0.0,2.0,94,0.00,,,0.60,Wunderground v.1.15,2013-05-30 16:49:00,
2013-05-30 11:54:00,61.5,60.1,29.54,SE,143,1.0,2.0,95,0.00,,,0.60,Wunderground v.1.15,2013-05-30 16:54:00,
2013-05-30 11:59:00,61.6,60.2,29.53,SE,126,1.0,2.0,95,0.00,,,0.60,Wunderground v.1.15,2013-05-30 16:59:00,
2013-05-30 12:04:00,61.7,60.3,29.54,SE,140,3.0,5.0,95,0.00,,,0.60,Wunderground v.1.15,2013-05-30 17:04:00,
2013-05-30 12:09:00,61.8,60.1,29.54,SSE,164,6.0,6.0,94,0.00,,,0.60,Wunderground v.1.15,2013-05-30 17:09:00,
2013-05-30 12:14:00,61.8,60.1,29.54,SSW,196,3.0,6.0,94,0.00,,,0.60,Wunderground v.1.15,2013-05-30 17:14:00,
2013-05-30 12:19:00,61.9,60.2,29.54,South,181,1.0,3.0,94,0.00,,,0.60,Wunderground v.1.15,2013-05-30 17:19:00,
2013-05-30 12:24:00,61.9,60.2,29.55,SSE,150,4.0,7.0,94,0.00,,,0.60,Wunderground v.1.15,2013-05-30 17:24:00,
2013-05-30 12:29:00,62.0,60.0,29.55,SE,125,1.0,4.0,93,0.00,,,0.60,Wunderground v.1.15,2013-05-30 17:29:00,
2013-05-30 12:34:00,62.1,60.1,29.55,South,174,2.0,6.0,93,0.00,,,0.60,Wunderground v.1.15,2013-05-30 17:34:00,
2013-05-30 12:39:00,62.2,60.2,29.59,West,261,0.0,3.0,93,0.00,,,0.60,Wunderground v.1.15,2013-05-30 17:39:00,
2013-05-30 12:44:00,62.3,60.6,29.63,North,360,1.0,3.0,94,0.00,,,0.60,Wunderground v.1.15,2013-05-30 17:44:00,
2013-05-30 12:49:00,62.3,60.8,29.64,ESE,114,2.0,2.0,95,0.00,,,0.60,Wunderground v.1.15,2013-05-30 17:49:00,
2013-05-30 12:54:00,62.2,60.5,29.63,WSW,239,1.0,8.0,94,0.00,,,0.60,Wunderground v.1.15,2013-05-30 17:54:00,
2013-05-30 12:59:00,62.3,60.2,29.61,SE,138,5.0,5.0,93,0.00,,,0.60,Wunderground v.1.15,2013-05-30 17:59:00,
2013-05-30 13:04:00,62.2,59.8,29.57,SE,137,4.0,7.0,92,0.00,,,0.60,Wunderground v.1.15,2013-05-30 18:04:00,
2013-05-30 13:09:00,62.2,60.2,29.51,ESE,108,2.0,4.0,93,0.00,,,0.60,Wunderground v.1.15,2013-05-30 18:09:00,
2013-05-30 13:14:00,62.1,60.1,29.50,SSW,194,2.0,8.0,93,0.00,,,0.61,Wunderground v.1.15,2013-05-30 18:14:00,
2013-05-30 13:19:00,62.1,60.1,29.52,ESE,116,2.0,4.0,93,0.00,,,0.61,Wunderground v.1.15,2013-05-30 18:19:00,
2013-05-30 13:24:00,62.2,60.2,29.53,SW,227,2.0,4.0,93,0.00,,,0.61,Wunderground v.1.15,2013-05-30 18:24:00,
2013-05-30 13:29:00,62.5,60.7,29.55,West,267,2.0,2.0,94,0.00,,,0.61,Wunderground v.1.15,2013-05-30 18:29:00,
2013-05-30 13:34:00,63.1,61.9,29.57,West,273,0.0,2.0,96,0.00,,,0.61,Wunderground v.1.15,2013-05-30 18:34:00,
2013-05-30 13:39:00,63.5,62.0,29.56,West,273,2.0,2.0,95,0.00,,,0.61,Wunderground v.1.15,2013-05-30 18:39:00,
2013-05-30 13:44:00,63.9,62.1,29.56,WNW,286,1.0,5.0,94,0.00,,,0.61,Wunderground v.1.15,2013-05-30 18:44:00,
2013-05-30 13:49:00,64.5,62.7,29.56,SW,233,4.0,4.0,94,0.00,,,0.61,Wunderground v.1.15,2013-05-30 18:49:00,
2013-05-30 13:54:00,65.0,62.3,29.56,SSE,153,5.0,6.0,91,0.00,,,0.61,Wunderground v.1.15,2013-05-30 18:54:00,
2013-05-30 13:59:00,65.3,62.3,29.57,SE,137,1.0,3.0,90,0.00,,,0.61,Wunderground v.1.15,2013-05-30 18:59:00,
2013-05-30 14:04:00,65.7,62.4,29.57,WSW,248,3.0,7.0,89,0.00,,,0.61,Wunderground v.1.15,2013-05-30 19:04:00,
2013-05-30 14:09:00,66.3,62.6,29.57,SSW,203,2.0,3.0,88,0.00,,,0.61,Wunderground v.1.15,2013-05-30 19:09:00,
2013-05-30 14:14:00,67.0,62.7,29.57,SE,136,2.0,6.0,86,0.00,,,0.61,Wunderground v.1.15,2013-05-30 19:14:00,
2013-05-30 14:19:00,67.6,63.3,29.58,West,263,2.0,5.0,86,0.00,,,0.61,Wunderground v.1.15,2013-05-30 19:19:00,
2013-05-30 14:24:00,68.3,62.9,29.59,SE,143,2.0,6.0,83,0.00,,,0.61,Wunderground v.1.15,2013-05-30 19:24:00,
2013-05-30 14:29:00,68.9,63.2,29.60,SE,130,3.0,3.0,82,0.00,,,0.61,Wunderground v.1.15,2013-05-30 19:29:00,
2013-05-30 14:34:00,69.8,64.4,29.60,SE,126,3.0,6.0,83,0.00,,,0.61,Wunderground v.1.15,2013-05-30 19:34:00,
2013-05-30 14:39:00,70.5,63.3,29.59,SSW,213,1.0,5.0,78,0.00,,,0.61,Wunderground v.1.15,2013-05-30 19:39:00,
2013-05-30 14:44:00,70.9,63.0,29.60,SSE,162,4.0,6.0,76,0.00,,,0.61,Wunderground v.1.15,2013-05-30 19:44:00,
2013-05-30 14:49:00,71.2,62.9,29.60,SW,227,3.0,5.0,75,0.00,,,0.61,Wunderground v.1.15,2013-05-30 19:49:00,
2013-05-30 14:54:00,71.9,63.2,29.60,ESE,117,4.0,7.0,74,0.00,,,0.61,Wunderground v.1.15,2013-05-30 19:54:00,
2013-05-30 14:59:00,72.3,62.0,29.60,West,275,2.0,6.0,70,0.00,,,0.61,Wunderground v.1.15,2013-05-30 19:59:00,
2013-05-30 15:04:00,72.9,63.3,29.60,WSW,258,3.0,6.0,72,0.00,,,0.61,Wunderground v.1.15,2013-05-30 20:04:00,
2013-05-30 15:09:00,73.5,62.3,29.60,SSW,195,5.0,6.0,68,0.00,,,0.61,Wunderground v.1.15,2013-05-30 20:09:00,
2013-05-30 15:14:00,73.9,61.8,29.60,SE,130,0.0,7.0,66,0.00,,,0.61,Wunderground v.1.15,2013-05-30 20:14:00,
2013-05-30 15:19:00,74.0,61.5,29.60,SW,217,1.0,5.0,65,0.00,,,0.61,Wunderground v.1.15,2013-05-30 20:19:00,
2013-05-30 15:24:00,74.5,62.4,29.60,East,87,5.0,7.0,66,0.00,,,0.61,Wunderground v.1.15,2013-05-30 20:24:00,
2013-05-30 15:29:00,74.9,62.3,29.60,SE,134,4.0,5.0,65,0.00,,,0.61,Wunderground v.1.15,2013-05-30 20:29:00,
2013-05-30 15:34:00,74.9,61.9,29.59,ESE,122,1.0,10.0,64,0.00,,,0.61,Wunderground v.1.15,2013-05-30 20:34:00,
2013-05-30 15:39:00,74.5,62.0,29.59,South,170,6.0,9.0,65,0.00,,,0.61,Wunderground v.1.15,2013-05-30 20:39:00,
2013-05-30 15:44:00,74.3,63.1,29.59,SW,226,4.0,9.0,68,0.00,,,0.61,Wunderground v.1.15,2013-05-30 20:44:00,
2013-05-30 15:49:00,74.4,62.3,29.58,SSW,204,7.0,7.0,66,0.00,,,0.61,Wunderground v.1.15,2013-05-30 20:49:00,
2013-05-30 15:54:00,74.7,63.4,29.58,South,188,4.0,7.0,68,0.00,,,0.61,Wunderground v.1.15,2013-05-30 20:54:00,
2013-05-30 16:00:00,74.8,63.1,29.58,WSW,250,5.0,5.0,67,0.00,,,0.61,Wunderground v.1.15,2013-05-30 21:00:00,
2013-05-30 16:05:00,75.2,63.5,29.57,NW,311,1.0,6.0,67,0.00,,,0.61,Wunderground v.1.15,2013-05-30 21:05:00,
2013-05-30 16:10:00,75.7,63.5,29.57,SE,144,4.0,5.0,66,0.00,,,0.61,Wunderground v.1.15,2013-05-30 21:10:00,
2013-05-30 16:15:00,75.7,62.7,29.57,SE,131,3.0,6.0,64,0.00,,,0.61,Wunderground v.1.15,2013-05-30 21:15:00,
2013-05-30 16:20:00,75.5,62.9,29.57,ESE,120,3.0,9.0,65,0.00,,,0.61,Wunderground v.1.15,2013-05-30 21:20:00,
2013-05-30 16:25:00,75.4,63.2,29.57,South,180,2.0,9.0,66,0.00,,,0.61,Wunderground v.1.15,2013-05-30 21:25:00,
2013-05-30 16:30:00,75.7,63.1,29.57,NE,39,3.0,7.0,65,0.00,,,0.61,Wunderground v.1.15,2013-05-30 21:30:00,
2013-05-30 16:35:00,76.0,62.5,29.57,SSE,147,3.0,7.0,63,0.00,,,0.61,Wunderground v.1.15,2013-05-30 21:35:00,
2013-05-30 16:40:00,76.0,63.4,29.57,SSE,156,1.0,4.0,65,0.00,,,0.61,Wunderground v.1.15,2013-05-30 21:40:00,
2013-05-30 16:45:00,76.0,64.2,29.57,SW,227,0.0,8.0,67,0.00,,,0.61,Wunderground v.1.15,2013-05-30 21:45:00,
2013-05-30 16:50:00,76.2,64.0,29.57,SE,130,4.0,7.0,66,0.00,,,0.61,Wunderground v.1.15,2013-05-30 21:50:00,
2013-05-30 16:55:00,75.1,63.4,29.57,SW,221,3.0,10.0,67,0.00,,,0.61,Wunderground v.1.15,2013-05-30 21:55:00,
2013-05-30 17:00:00,74.8,64.4,29.56,East,84,3.0,3.0,70,0.00,,,0.61,Wunderground v.1.15,2013-05-30 22:00:00,
2013-05-30 17:05:00,74.5,64.1,29.56,SSE,152,1.0,7.0,70,0.00,,,0.61,Wunderground v.1.15,2013-05-30 22:05:00,
2013-05-30 17:10:00,74.4,64.8,29.57,SSE,158,3.0,8.0,72,0.00,,,0.61,Wunderground v.1.15,2013-05-30 22:10:00,
2013-05-30 17:15:00,74.2,64.2,29.57,SSE,150,4.0,8.0,71,0.00,,,0.61,Wunderground v.1.15,2013-05-30 22:15:00,
2013-05-30 17:20:00,73.9,64.3,29.57,South,169,2.0,8.0,72,0.00,,,0.61,Wunderground v.1.15,2013-05-30 22:20:00,
2013-05-30 17:25:00,74.3,64.7,29.56,WSW,244,2.0,8.0,72,0.00,,,0.61,Wunderground v.1.15,2013-05-30 22:25:00,
2013-05-30 17:30:00,74.6,64.6,29.56,WSW,244,3.0,7.0,71,0.00,,,0.61,Wunderground v.1.15,2013-05-30 22:30:00,
2013-05-30 17:35:00,74.9,64.5,29.57,SSW,196,6.0,7.0,70,0.00,,,0.61,Wunderground v.1.15,2013-05-30 22:35:00,
2013-05-30 17:40:00,74.8,63.9,29.57,SE,133,3.0,7.0,69,0.00,,,0.61,Wunderground v.1.15,2013-05-30 22:40:00,
2013-05-30 17:45:00,74.7,64.3,29.57,South,169,4.0,9.0,70,0.00,,,0.61,Wunderground v.1.15,2013-05-30 22:45:00,
2013-05-30 17:50:00,74.7,64.3,29.57,SW,236,3.0,4.0,70,0.00,,,0.61,Wunderground v.1.15,2013-05-30 22:50:00,
2013-05-30 17:55:00,74.5,63.7,29.57,SSE,157,2.0,8.0,69,0.00,,,0.61,Wunderground v.1.15,2013-05-30 22:55:00,
2013-05-30 18:00:00,74.4,64.0,29.58,WSW,239,3.0,4.0,70,0.00,,,0.61,Wunderground v.1.15,2013-05-30 23:00:00,
2013-05-30 18:05:00,74.9,64.5,29.58,West,261,3.0,5.0,70,0.00,,,0.61,Wunderground v.1.15,2013-05-30 23:05:00,
2013-05-30 18:10:00,75.2,63.9,29.58,SE,146,3.0,6.0,68,0.00,,,0.61,Wunderground v.1.15,2013-05-30 23:10:00,
2013-05-30 18:15:00,75.3,64.4,29.58,South,169,1.0,6.0,69,0.00,,,0.61,Wunderground v.1.15,2013-05-30 23:15:00,
2013-05-30 18:20:00,75.4,64.1,29.58,WSW,240,2.0,5.0,68,0.00,,,0.61,Wunderground v.1.15,2013-05-30 23:20:00,
2013-05-30 18:25:00,75.3,64.4,29.58,South,189,1.0,5.0,69,0.00,,,0.61,Wunderground v.1.15,2013-05-30 23:25:00,
2013-05-30 18:30:00,75.4,64.5,29.58,East,101,3.0,4.0,69,0.00,,,0.61,Wunderground v.1.15,2013-05-30 23:30:00,
2013-05-30 18:35:00,75.5,64.6,29.58,SW,236,1.0,4.0,69,0.00,,,0.61,Wunderground v.1.15,2013-05-30 23:35:00,
2013-05-30 18:40:00,75.7,64.4,29.58,SW,228,2.0,4.0,68,0.00,,,0.61,Wunderground v.1.15,2013-05-30 23:40:00,
2013-05-30 18:45:00,75.5,64.6,29.58,WSW,257,1.0,6.0,69,0.00,,,0.61,Wunderground v.1.15,2013-05-30 23:45:00,
2013-05-30 18:50:00,75.4,64.9,29.58,South,186,2.0,4.0,70,0.00,,,0.61,Wunderground v.1.15,2013-05-30 23:50:00,
2013-05-30 18:55:00,75.3,65.2,29.58,SW,228,2.0,4.0,71,0.00,,,0.61,Wunderground v.1.15,2013-05-30 23:55:00,
2013-05-30 19:00:00,75.1,65.1,29.58,WSW,249,2.0,3.0,71,0.00,,,0.61,Wunderground v.1.15,2013-05-31 00:00:00,
2013-05-30 19:05:00,74.8,65.2,29.58,ENE,64,0.0,4.0,72,0.00,,,0.61,Wunderground v.1.15,2013-05-31 00:05:00,
2013-05-30 19:10:00,74.5,65.3,29.59,SE,124,2.0,5.0,73,0.00,,,0.61,Wunderground v.1.15,2013-05-31 00:10:00,
2013-05-30 19:15:00,74.3,65.5,29.59,ENE,68,1.0,5.0,74,0.00,,,0.61,Wunderground v.1.15,2013-05-31 00:15:00,
2013-05-30 19:20:00,74.1,65.3,29.59,ENE,67,3.0,3.0,74,0.00,,,0.61,Wunderground v.1.15,2013-05-31 00:20:00,
2013-05-30 19:25:00,73.9,65.5,29.59,SSE,148,3.0,4.0,75,0.00,,,0.61,Wunderground v.1.15,2013-05-31 00:25:00,
2013-05-30 19:30:00,73.7,65.3,29.59,SSW,210,1.0,3.0,75,0.00,,,0.61,Wunderground v.1.15,2013-05-31 00:30:00,
2013-05-30 19:35:00,73.6,65.6,29.61,SW,232,1.0,3.0,76,0.00,,,0.61,Wunderground v.1.15,2013-05-31 00:35:00,
2013-05-30 19:40:00,73.4,65.4,29.60,SSE,159,2.0,5.0,76,0.00,,,0.61,Wunderground v.1.15,2013-05-31 00:40:00,
2013-05-30 19:45:00,73.3,65.7,29.61,WNW,294,1.0,5.0,77,0.00,,,0.61,Wunderground v.1.15,2013-05-31 00:45:00,
2013-05-30 19:50:00,73.1,65.5,29.62,SW,232,0.0,1.0,77,0.00,,,0.61,Wunderground v.1.15,2013-05-31 00:50:00,
2013-05-30 19:55:00,72.9,65.6,29.63,WSW,248,1.0,2.0,78,0.00,,,0.61,Wunderground v.1.15,2013-05-31 00:55:00,
2013-05-30 20:00:00,72.6,65.3,29.64,WSW,238,1.0,4.0,78,0.00,,,0.61,Wunderground v.1.15,2013-05-31 01:00:00,
2013-05-30 20:05:00,72.5,65.6,29.65,South,184,0.0,4.0,79,0.00,,,0.61,Wunderground v.1.15,2013-05-31 01:05:00,
2013-05-30 20:10:00,72.2,65.7,29.65,SW,224,4.0,5.0,80,0.00,,,0.61,Wunderground v.1.15,2013-05-31 01:10:00,
2013-05-30 20:15:00,72.2,65.7,29.60,East,81,1.0,7.0,80,0.00,,,0.61,Wunderground v.1.15,2013-05-31 01:15:00,
2013-05-30 20:20:00,72.1,65.9,29.59,East,84,1.0,3.0,81,0.00,,,0.61,Wunderground v.1.15,2013-05-31 01:20:00,
2013-05-30 20:25:00,72.0,65.8,29.59,East,92,2.0,3.0,81,0.00,,,0.61,Wunderground v.1.15,2013-05-31 01:25:00,
2013-05-30 20:30:00,71.9,65.8,29.60,SSW,209,1.0,2.0,81,0.00,,,0.61,Wunderground v.1.15,2013-05-31 01:30:00,
2013-05-30 20:35:00,71.8,65.7,29.61,SE,145,1.0,2.0,81,0.00,,,0.61,Wunderground v.1.15,2013-05-31 01:35:00,
2013-05-30 20:40:00,71.6,65.8,29.60,South,175,1.0,2.0,82,0.00,,,0.61,Wunderground v.1.15,2013-05-31 01:40:00,
2013-05-30 20:45:00,71.5,65.7,29.61,SE,128,0.0,3.0,82,0.00,,,0.61,Wunderground v.1.15,2013-05-31 01:45:00,
2013-05-30 20:50:00,71.4,65.6,29.61,SE,138,1.0,3.0,82,0.00,,,0.61,Wunderground v.1.15,2013-05-31 01:50:00,
2013-05-30 20:55:00,71.3,65.5,29.60,SE,136,1.0,3.0,82,0.00,,,0.61,Wunderground v.1.15,2013-05-31 01:55:00,
2013-05-30 21:00:00,71.1,65.7,29.60,ESE,105,0.0,2.0,83,0.00,,,0.61,Wunderground v.1.15,2013-05-31 02:00:00,
2013-05-30 21:05:00,71.0,65.6,29.60,ESE,105,0.0,2.0,83,0.00,,,0.61,Wunderground v.1.15,2013-05-31 02:05:00,
2013-05-30 21:10:00,70.8,65.4,29.61,SW,236,1.0,2.0,83,0.00,,,0.61,Wunderground v.1.15,2013-05-31 02:10:00,
2013-05-30 21:15:00,70.6,65.2,29.61,South,180,0.0,2.0,83,0.00,,,0.61,Wunderground v.1.15,2013-05-31 02:15:00,
2013-05-30 21:20:00,70.4,65.0,29.62,WSW,242,1.0,3.0,83,0.00,,,0.61,Wunderground v.1.15,2013-05-31 02:20:00,
2013-05-30 21:25:00,70.3,65.2,29.62,SSE,158,2.0,3.0,84,0.00,,,0.61,Wunderground v.1.15,2013-05-31 02:25:00,
2013-05-30 21:30:00,70.1,65.0,29.62,SE,136,2.0,3.0,84,0.00,,,0.61,Wunderground v.1.15,2013-05-31 02:30:00,
2013-05-30 21:35:00,69.9,65.2,29.62,SE,130,2.0,3.0,85,0.00,,,0.61,Wunderground v.1.15,2013-05-31 02:35:00,
2013-05-30 21:40:00,69.8,64.7,29.62,SE,146,0.0,3.0,84,0.00,,,0.61,Wunderground v.1.15,2013-05-31 02:40:00,
2013-05-30 21:45:00,69.7,65.0,29.61,SE,146,0.0,3.0,85,0.00,,,0.61,Wunderground v.1.15,2013-05-31 02:45:00,
2013-05-30 21:50:00,69.5,64.8,29.62,SE,140,1.0,1.0,85,0.00,,,0.61,Wunderground v.1.15,2013-05-31 02:50:00,
2013-05-30 21:55:00,69.3,64.6,29.62,SSW,193,1.0,2.0,85,0.00,,,0.61,Wunderground v.1.15,2013-05-31 02:55:00,
2013-05-30 22:00:00,69.1,64.7,29.63,South,183,1.0,1.0,86,0.00,,,0.61,Wunderground v.1.15,2013-05-31 03:00:00,
2013-05-30 22:05:00,68.9,64.5,29.63,South,178,2.0,3.0,86,0.00,,,0.61,Wunderground v.1.15,2013-05-31 03:05:00,
2013-05-30 22:10:00,68.7,64.3,29.63,South,173,1.0,2.0,86,0.00,,,0.61,Wunderground v.1.15,2013-05-31 03:10:00,
2013-05-30 22:15:00,68.6,64.6,29.63,SSE,159,1.0,2.0,87,0.00,,,0.61,Wunderground v.1.15,2013-05-31 03:15:00,
2013-05-30 22:20:00,68.5,64.1,29.63,SSE,159,2.0,2.0,86,0.00,,,0.61,Wunderground v.1.15,2013-05-31 03:20:00,
2013-05-30 22:25:00,68.4,64.4,29.63,SE,130,1.0,3.0,87,0.00,,,0.61,Wunderground v.1.15,2013-05-31 03:25:00,
2013-05-30 22:30:00,68.3,64.3,29.62,SE,138,2.0,2.0,87,0.00,,,0.61,Wunderground v.1.15,2013-05-31 03:30:00,
2013-05-30 22:35:00,68.0,64.0,29.63,SE,134,0.0,2.0,87,0.00,,,0.61,Wunderground v.1.15,2013-05-31 03:35:00,
2013-05-30 22:40:00,67.7,64.0,29.64,SE,134,0.0,1.0,88,0.00,,,0.61,Wunderground v.1.15,2013-05-31 03:40:00,
2013-05-30 22:45:00,67.5,64.1,29.64,SE,134,1.0,4.0,89,0.00,,,0.61,Wunderground v.1.15,2013-05-31 03:45:00,
2013-05-30 22:50:00,67.6,64.2,29.64,SSW,199,1.0,2.0,89,0.00,,,0.61,Wunderground v.1.15,2013-05-31 03:50:00,
2013-05-30 22:55:00,67.7,64.0,29.65,ESE,107,0.0,2.0,88,0.00,,,0.61,Wunderground v.1.15,2013-05-31 03:55:00,
2013-05-30 23:00:00,67.8,64.1,29.67,South,186,1.0,1.0,88,0.00,,,0.61,Wunderground v.1.15,2013-05-31 04:00:00,
2013-05-30 23:01:00,67.8,64.1,29.67,SW,216,0.0,2.0,88,0.00,,,0.61,Wunderground v.1.15,2013-05-31 04:01:00,
2013-05-30 23:06:00,67.8,64.4,29.68,SW,216,1.0,2.0,89,0.00,,,0.61,Wunderground v.1.15,2013-05-31 04:06:00,
2013-05-30 23:11:00,67.8,64.8,29.62,East,81,2.0,5.0,90,0.00,,,0.62,Wunderground v.1.15,2013-05-31 04:11:00,
2013-05-30 23:16:00,67.8,65.1,29.66,South,169,2.0,5.0,91,0.00,,,0.62,Wunderground v.1.15,2013-05-31 04:16:00,
2013-05-30 23:21:00,67.9,65.2,29.66,SSE,159,2.0,4.0,91,0.00,,,0.62,Wunderground v.1.15,2013-05-31 04:21:00,
2013-05-30 23:26:00,67.9,65.2,29.65,SE,136,2.0,6.0,91,0.00,,,0.62,Wunderground v.1.15,2013-05-31 04:26:00,
2013-05-30 23:31:00,67.9,65.5,29.66,SE,140,2.0,5.0,92,0.00,,,0.62,Wunderground v.1.15,2013-05-31 04:31:00,
2013-05-30 23:36:00,67.9,65.5,29.66,SE,140,4.0,5.0,92,0.00,,,0.62,Wunderground v.1.15,2013-05-31 04:36:00,
2013-05-30 23:41:00,67.8,65.4,29.65,West,276,4.0,7.0,92,0.00,,,0.62,Wunderground v.1.15,2013-05-31 04:41:00,
2013-05-30 23:46:00,67.7,65.6,29.65,SE,138,8.0,9.0,93,0.00,,,0.62,Wunderground v.1.15,2013-05-31 04:46:00,
2013-05-30 23:51:00,67.7,65.6,29.65,NE,41,2.0,7.0,93,0.00,,,0.62,Wunderground v.1.15,2013-05-31 04:51:00,
2013-05-30 23:56:00,67.7,65.6,29.65,SE,126,3.0,7.0,93,0.00,,,0.62,Wunderground v.1.15,2013-05-31 04:56:00,